Time;durP1;ratioP1;P1;durP2;ratioP2;P2;SDS_P1;SDS_P2;PMS_P1;PMS_P2;Temp;Humidity;BMP_temperature;BMP_pressure;BME280_temperature;BME280_humidity;BME280_pressure;Samples;Min_cycle;Max_cycle;Signal;HPM_P1;HPM_P2
2022/06/06 00:01:29;;;;;;;3.53;2.60;;;;;;;21.27;58.03;98893.53;6923909;28;20239;-77
2022/06/06 00:04:50;;;;;;;4.37;2.80;;;;;;;20.65;59.96;98887.25;6924284;28;20235;-77
2022/06/06 00:08:13;;;;;;;3.60;2.53;;;;;;;20.93;59.23;98884.94;6929993;28;20269;-78
2022/06/06 00:11:35;;;;;;;3.90;2.43;;;;;;;21.39;57.75;98881.19;6942113;28;20239;-78
2022/06/06 00:14:58;;;;;;;4.03;2.77;;;;;;;21.54;57.32;98884.75;6942178;28;20228;-78
2022/06/06 00:18:19;;;;;;;4.50;2.83;;;;;;;21.59;57.30;98875.75;6942292;28;20241;-78
2022/06/06 00:21:43;;;;;;;2.50;2.30;;;;;;;20.89;59.55;98870.13;6941453;28;20220;-78
2022/06/06 00:25:07;;;;;;;3.93;2.90;;;;;;;21.04;58.25;98874.84;6941670;28;20200;-77
2022/06/06 00:28:28;;;;;;;4.17;2.90;;;;;;;21.17;58.56;98856.75;6941401;28;20272;-78
2022/06/06 00:35:29;;;;;;;5.07;3.00;;;;;;;21.11;58.68;98875.41;6939444;28;20253;-78
2022/06/06 00:38:50;;;;;;;3.10;2.67;;;;;;;21.49;57.88;98875.72;6940318;28;20219;-77
2022/06/06 00:42:17;;;;;;;4.27;3.03;;;;;;;21.08;59.18;98875.91;6941305;28;20264;-78
2022/06/06 00:45:39;;;;;;;3.97;3.30;;;;;;;21.09;58.95;98872.91;6941220;28;20211;-78
2022/06/06 00:49:02;;;;;;;3.57;3.10;;;;;;;20.29;61.00;98853.38;6940183;28;20654;-78
2022/06/06 00:52:26;;;;;;;5.33;3.13;;;;;;;20.55;60.59;98859.81;6940954;28;20207;-78
2022/06/06 00:55:49;;;;;;;3.67;2.70;;;;;;;20.49;61.03;98864.47;6941176;28;20260;-78
2022/06/06 00:59:15;;;;;;;3.40;3.10;;;;;;;20.76;60.22;98858.81;6936934;28;20208;-78
2022/06/06 01:02:39;;;;;;;3.73;2.90;;;;;;;20.47;60.73;98860.34;6919760;28;20235;-78
2022/06/06 01:06:01;;;;;;;3.57;2.97;;;;;;;20.91;59.53;98853.38;6918784;28;20209;-78
2022/06/06 01:09:24;;;;;;;3.47;3.17;;;;;;;21.11;59.31;98857.00;6918434;28;20593;-78
2022/06/06 01:12:48;;;;;;;4.00;3.23;;;;;;;20.99;59.30;98855.63;6932178;28;20680;-77
2022/06/06 01:16:40;;;;;;;3.60;3.30;;;;;;;20.17;61.02;98838.28;6944642;28;20203;-77
2022/06/06 01:20:16;;;;;;;3.93;3.50;;;;;;;20.49;60.31;98841.72;6945690;28;20385;-77
2022/06/06 01:23:55;;;;;;;4.57;3.50;;;;;;;20.72;59.98;98842.09;6946214;28;20207;-78
2022/06/06 01:27:47;;;;;;;3.47;3.17;;;;;;;20.98;59.20;98832.06;6945004;28;20195;-77
2022/06/06 01:31:13;;;;;;;3.50;3.17;;;;;;;20.48;59.88;98831.84;6939387;28;20223;-77
2022/06/06 01:34:37;;;;;;;4.30;3.33;;;;;;;20.44;61.01;98822.50;6943576;28;20266;-77
2022/06/06 01:37:59;;;;;;;4.07;3.47;;;;;;;20.38;61.08;98829.91;6945288;28;20203;-77
2022/06/06 01:41:26;;;;;;;4.43;3.90;;;;;;;20.49;61.37;98833.50;6945735;28;20314;-77
2022/06/06 01:44:52;;;;;;;7.23;3.80;;;;;;;20.17;61.23;98832.81;6945705;28;20188;-77
2022/06/06 01:48:17;;;;;;;6.47;4.40;;;;;;;19.79;62.45;98802.97;6944370;28;20289;-78
2022/06/06 01:51:39;;;;;;;8.37;3.67;;;;;;;20.19;61.68;98811.44;6948981;28;20264;-77
2022/06/06 01:55:01;;;;;;;5.40;4.17;;;;;;;20.06;62.62;98820.13;6950123;28;20322;-78
2022/06/06 01:58:25;;;;;;;7.00;3.70;;;;;;;19.99;61.28;98820.34;6943841;28;20668;-77
2022/06/06 02:01:47;;;;;;;5.50;4.03;;;;;;;19.84;61.40;98823.00;6944090;28;20373;-77
2022/06/06 02:05:11;;;;;;;6.53;4.47;;;;;;;19.95;60.95;98821.97;6944888;28;20203;-77
2022/06/06 02:08:32;;;;;;;6.03;4.53;;;;;;;19.01;63.06;98817.38;6943657;28;20210;-77
2022/06/06 02:11:54;;;;;;;7.67;6.30;;;;;;;18.37;66.88;98822.91;6944277;28;20229;-78
2022/06/06 02:15:18;;;;;;;6.57;5.90;;;;;;;19.14;65.51;98819.69;6943628;28;20291;-77
2022/06/06 02:18:40;;;;;;;7.20;5.10;;;;;;;19.49;63.97;98819.16;6948697;28;20348;-78
2022/06/06 02:22:03;;;;;;;5.93;4.90;;;;;;;19.92;62.29;98814.28;6950255;28;20314;-77
2022/06/06 02:25:25;;;;;;;6.17;4.50;;;;;;;19.50;62.59;98829.84;6949494;28;20337;-77
2022/06/06 02:28:47;;;;;;;10.23;4.90;;;;;;;18.94;63.42;98826.84;6948919;28;20239;-77
2022/06/06 02:32:09;;;;;;;6.63;4.70;;;;;;;18.84;65.21;98834.94;6949468;28;20318;-77
2022/06/06 02:35:33;;;;;;;4.97;4.50;;;;;;;19.04;64.59;98827.75;6948327;28;20322;-77
2022/06/06 02:38:56;;;;;;;6.53;4.53;;;;;;;18.99;64.07;98829.63;6948716;28;20683;-78
2022/06/06 02:42:18;;;;;;;7.87;5.03;;;;;;;19.08;64.08;98826.19;6949213;28;20714;-77
2022/06/06 02:45:40;;;;;;;6.90;4.73;;;;;;;19.26;63.79;98833.19;6948546;28;20203;-77
2022/06/06 02:49:02;;;;;;;5.53;5.03;;;;;;;18.97;63.51;98813.50;6947965;28;20249;-77
2022/06/06 02:52:23;;;;;;;7.97;5.27;;;;;;;18.94;64.21;98849.53;6949057;28;20214;-77
2022/06/06 02:55:46;;;;;;;7.33;5.00;;;;;;;19.13;63.97;98839.91;6949335;28;20642;-77
2022/06/06 02:59:09;;;;;;;6.10;4.30;;;;;;;19.24;63.16;98854.50;6949294;28;20275;-76
2022/06/06 03:02:30;;;;;;;7.17;4.87;;;;;;;18.97;63.64;98850.91;6949874;28;20218;-76
2022/06/06 03:05:58;;;;;;;7.17;4.93;;;;;;;18.56;64.03;98840.63;6949930;28;20687;-77
2022/06/06 03:09:30;;;;;;;6.00;5.13;;;;;;;18.75;64.15;98815.44;6949349;28;20729;-77
2022/06/06 03:13:03;;;;;;;5.83;4.67;;;;;;;19.16;63.34;98857.69;6939419;28;20207;-77
2022/06/06 03:24:14;;;;;;;4.47;4.07;;;;;;;19.49;60.82;98873.88;6922339;28;20185;-77
2022/06/06 03:27:45;;;;;;;6.30;3.90;;;;;;;19.41;61.31;98888.03;6921291;28;20234;-77
2022/06/06 03:31:18;;;;;;;4.27;3.90;;;;;;;18.98;61.83;98885.38;6922103;28;20285;-77
2022/06/06 03:34:46;;;;;;;6.43;5.50;;;;;;;17.36;67.81;98901.53;6920655;28;20781;-77
2022/06/06 03:38:11;;;;;;;7.47;5.43;;;;;;;17.44;69.35;98892.97;6921379;28;20191;-77
2022/06/06 03:41:37;;;;;;;6.13;5.03;;;;;;;18.34;67.14;98881.56;6921393;28;20237;-77
2022/06/06 03:45:07;;;;;;;5.30;4.80;;;;;;;18.89;65.08;98892.38;6920928;28;20284;-77
2022/06/06 03:48:40;;;;;;;5.30;4.80;;;;;;;18.95;64.29;98894.06;6921372;28;20249;-78
2022/06/06 03:52:06;;;;;;;5.60;4.77;;;;;;;18.90;64.07;98896.75;6921260;28;20262;-76
2022/06/06 03:55:37;;;;;;;8.10;5.23;;;;;;;19.22;63.35;98879.34;6921294;28;20303;-77
2022/06/06 03:59:00;;;;;;;8.20;4.60;;;;;;;19.28;62.21;98877.53;6920884;28;20226;-76
2022/06/06 04:02:25;;;;;;;5.87;4.40;;;;;;;19.01;62.91;98896.63;6920274;28;20350;-77
2022/06/06 04:05:48;;;;;;;6.90;4.57;;;;;;;19.20;62.22;98886.13;6920314;28;20203;-76
2022/06/06 04:09:10;;;;;;;5.73;4.73;;;;;;;18.90;63.03;98891.28;6919580;28;20242;-77
2022/06/06 04:12:51;;;;;;;5.10;4.57;;;;;;;18.81;63.80;98898.28;6920423;28;20310;-76
2022/06/06 04:16:22;;;;;;;6.20;5.33;;;;;;;17.89;66.35;98863.72;6920156;28;20349;-78
2022/06/06 04:19:51;;;;;;;6.37;5.33;;;;;;;18.51;64.60;98884.28;6919277;28;20234;-77
2022/06/06 04:23:36;;;;;;;6.83;5.13;;;;;;;19.01;64.20;98899.34;6920055;28;20759;-77
2022/06/06 04:27:04;;;;;;;7.43;4.90;;;;;;;19.01;63.17;98895.78;6920052;28;20546;-78
2022/06/06 04:30:36;;;;;;;5.13;4.73;;;;;;;19.26;62.72;98898.81;6919171;28;20231;-77
2022/06/06 04:34:04;;;;;;;7.73;4.70;;;;;;;19.56;62.12;98899.09;6918234;28;20222;-78
2022/06/06 04:37:32;;;;;;;4.80;4.40;;;;;;;19.53;61.69;98905.94;6919431;28;20191;-78
2022/06/06 04:40:57;;;;;;;4.70;4.30;;;;;;;19.66;61.18;98900.03;6918487;28;20366;-77
2022/06/06 04:44:22;;;;;;;6.03;4.63;;;;;;;19.52;62.08;98909.72;6919502;28;20712;-78
2022/06/06 04:47:44;;;;;;;5.37;4.50;;;;;;;19.72;61.29;98898.13;6918959;28;20255;-78
2022/06/06 04:51:05;;;;;;;7.30;4.87;;;;;;;19.18;62.49;98893.78;6919247;28;20314;-78
2022/06/06 04:54:28;;;;;;;4.40;4.10;;;;;;;19.61;62.02;98908.19;6918634;28;20322;-78
2022/06/06 04:57:54;;;;;;;5.67;3.90;;;;;;;19.92;61.48;98903.78;6918817;28;20350;-78
2022/06/06 05:01:17;;;;;;;5.73;4.40;;;;;;;19.50;61.19;98884.56;6918980;28;20628;-78
2022/06/06 05:04:38;;;;;;;4.77;4.10;;;;;;;19.84;62.46;98902.34;6919164;28;20218;-78
2022/06/06 05:08:10;;;;;;;6.80;4.07;;;;;;;19.67;63.18;98882.53;6918344;28;20207;-78
2022/06/06 05:11:40;;;;;;;4.67;3.70;;;;;;;21.05;59.98;98903.91;6918453;28;20377;-78
2022/06/06 05:15:18;;;;;;;7.87;5.00;;;;;;;20.08;62.22;98902.81;6938418;28;20261;-78
2022/06/06 05:18:59;;;;;;;4.60;3.93;;;;;;;20.58;61.81;98912.16;6945294;28;20353;-77
2022/06/06 05:22:41;;;;;;;4.80;3.83;;;;;;;21.45;60.34;98910.28;6945644;28;20294;-78
2022/06/06 05:26:29;;;;;;;4.13;3.70;;;;;;;22.01;59.12;98918.28;6946074;28;20274;-78
2022/06/06 05:30:06;;;;;;;4.93;4.10;;;;;;;22.21;56.16;98914.69;6944531;28;20317;-78
2022/06/06 05:33:33;;;;;;;4.87;4.40;;;;;;;22.50;55.82;98922.09;6943424;28;20193;-78
2022/06/06 05:37:14;;;;;;;4.77;4.23;;;;;;;22.45;56.51;98918.53;6944750;28;20213;-78
2022/06/06 05:40:38;;;;;;;5.33;4.30;;;;;;;21.23;59.50;98917.09;6944172;28;20230;-78
2022/06/06 05:44:04;;;;;;;7.10;4.00;;;;;;;20.96;60.89;98870.69;6945574;28;20265;-78
2022/06/06 05:47:33;;;;;;;4.77;3.97;;;;;;;21.82;59.92;98919.94;6945353;28;20191;-79
2022/06/06 05:51:07;;;;;;;4.10;3.80;;;;;;;22.20;59.15;98908.38;6944597;28;20226;-80
2022/06/06 05:54:39;;;;;;;6.00;4.20;;;;;;;22.54;58.14;98914.91;6945211;28;20303;-78
2022/06/06 05:58:23;;;;;;;4.63;3.87;;;;;;;22.20;59.05;98918.56;6944639;28;20248;-78
2022/06/06 06:02:04;;;;;;;4.53;3.90;;;;;;;22.93;57.31;98918.63;6944741;28;20243;-79
2022/06/06 06:05:36;;;;;;;4.57;3.80;;;;;;;23.33;56.80;98921.22;6945155;28;20334;-78
2022/06/06 06:09:12;;;;;;;6.57;3.23;;;;;;;23.93;53.40;98928.22;6945469;28;20284;-78
2022/06/06 06:13:01;;;;;;;3.60;3.30;;;;;;;23.89;53.64;98932.69;6943769;28;20710;-79
2022/06/06 06:16:24;;;;;;;5.70;3.40;;;;;;;24.22;52.55;98932.66;6938663;28;20731;-78
2022/06/06 06:19:48;;;;;;;3.57;3.07;;;;;;;24.36;51.69;98899.75;6925402;28;20232;-77
2022/06/06 06:23:14;;;;;;;4.40;2.60;;;;;;;24.80;51.25;98927.94;6944297;28;20242;-78
2022/06/06 06:26:39;;;;;;;3.07;2.83;;;;;;;24.57;52.61;98928.75;6945303;28;20188;-77
2022/06/06 06:30:01;;;;;;;3.30;3.00;;;;;;;24.50;51.76;98939.28;6943773;28;20227;-77
2022/06/06 06:33:34;;;;;;;4.73;3.23;;;;;;;24.40;51.08;98944.88;6943958;28;20203;-77
2022/06/06 06:37:05;;;;;;;3.43;3.13;;;;;;;23.81;52.48;98920.31;6945120;28;20634;-78
2022/06/06 06:40:44;;;;;;;4.73;3.30;;;;;;;23.97;52.70;98943.09;6944139;28;20333;-78
2022/06/06 06:44:09;;;;;;;6.33;3.43;;;;;;;24.31;51.69;98955.72;6944774;28;20283;-79
2022/06/06 06:47:33;;;;;;;3.30;3.00;;;;;;;24.43;51.55;98955.34;6944651;28;20654;-78
2022/06/06 06:50:57;;;;;;;5.87;3.33;;;;;;;24.47;52.21;98953.63;6944503;28;20334;-78
2022/06/06 06:54:30;;;;;;;5.80;3.10;;;;;;;25.10;50.53;98955.16;6945290;28;20235;-78
2022/06/06 06:58:04;;;;;;;3.23;2.90;;;;;;;25.09;50.46;98950.75;6945761;28;20206;-79
2022/06/06 07:01:33;;;;;;;6.53;3.40;;;;;;;24.88;50.11;98939.16;6945705;28;20234;-79
2022/06/06 07:08:55;;;;;;;3.93;3.00;;;;;;;25.64;49.25;98947.25;6950081;28;20266;-79
2022/06/06 07:12:24;;;;;;;5.23;3.17;;;;;;;25.73;49.28;98954.56;6950888;28;20286;-79
2022/06/06 07:15:50;;;;;;;3.80;3.00;;;;;;;25.44;49.25;98947.56;6930640;28;20364;-79
2022/06/06 07:19:17;;;;;;;3.40;2.70;;;;;;;26.25;48.23;98962.59;6934203;28;20202;-81
2022/06/06 07:26:26;;;;;;;3.83;3.53;;;;;;;26.15;47.90;98946.19;6940357;28;20231;-80
2022/06/06 07:29:47;;;;;;;4.70;3.30;;;;;;;26.66;46.67;98930.34;6949845;28;20226;-79
2022/06/06 07:33:27;;;;;;;3.47;3.00;;;;;;;25.95;47.05;98920.84;6950679;28;20211;-81
2022/06/06 07:37:07;;;;;;;4.83;3.00;;;;;;;26.58;45.84;98952.34;6944827;28;20306;-80
2022/06/06 07:40:37;;;;;;;7.97;3.37;;;;;;;25.81;47.65;98937.31;6950912;28;20237;-80
2022/06/06 07:44:11;;;;;;;3.40;3.10;;;;;;;26.41;46.20;98954.84;6951211;28;20240;-80
2022/06/06 07:47:52;;;;;;;3.77;3.47;;;;;;;26.57;44.92;98947.94;6950201;28;20203;-80
2022/06/06 07:51:20;;;;;;;8.23;3.20;;;;;;;27.10;42.08;98875.19;6949481;28;20237;-79
2022/06/06 07:54:49;;;;;;;3.47;3.17;;;;;;;27.19;44.04;98930.69;6949816;28;20183;-79
2022/06/06 07:58:15;;;;;;;3.93;3.13;;;;;;;27.28;44.20;98931.59;6949837;28;20203;-80
2022/06/06 08:01:43;;;;;;;3.40;3.10;;;;;;;28.24;40.53;98919.91;6949770;28;20273;-80
2022/06/06 08:05:16;;;;;;;4.50;3.17;;;;;;;28.01;41.24;98910.75;6949339;28;20191;-78
2022/06/06 08:08:52;;;;;;;4.83;3.60;;;;;;;27.75;42.32;98912.50;6947754;28;20668;-79
2022/06/06 08:12:41;;;;;;;3.27;2.67;;;;;;;27.91;41.13;98918.50;6947441;28;20305;-77
2022/06/06 08:16:17;;;;;;;3.53;3.00;;;;;;;27.66;40.98;98917.13;6933607;28;20248;-79
2022/06/06 08:19:51;;;;;;;4.93;3.00;;;;;;;26.46;43.13;98924.34;6947663;28;20601;-79
2022/06/06 08:23:14;;;;;;;4.07;3.03;;;;;;;26.95;41.10;98924.53;6920799;28;20196;-79
2022/06/06 08:26:38;;;;;;;3.53;3.23;;;;;;;26.24;43.79;98929.75;6942631;28;20555;-79
2022/06/06 08:30:02;;;;;;;4.37;3.27;;;;;;;25.94;44.84;98925.53;6946977;28;20219;-79
2022/06/06 08:33:24;;;;;;;3.07;2.77;;;;;;;26.64;42.86;98913.25;6947129;28;20201;-79
2022/06/06 08:36:58;;;;;;;3.57;3.23;;;;;;;26.67;43.40;98893.25;6949054;28;20222;-79
2022/06/06 08:41:10;;;;;;;3.33;2.73;;;;;;;28.42;40.79;98907.78;6947916;28;20233;-79
2022/06/06 08:44:50;;;;;;;3.13;2.80;;;;;;;28.95;39.61;98916.84;6919131;28;20245;-79
2022/06/06 08:48:18;;;;;;;4.23;2.90;;;;;;;28.70;38.83;98906.44;6948822;28;20265;-79
2022/06/06 08:51:49;;;;;;;3.83;3.07;;;;;;;28.14;41.46;98898.75;6948392;28;20266;-78
2022/06/06 08:55:55;;;;;;;6.07;2.90;;;;;;;29.07;38.52;98900.41;6948732;28;20713;-79
2022/06/06 08:59:58;;;;;;;4.03;3.10;;;;;;;28.67;39.09;98871.81;6863930;28;20326;-78
2022/06/06 09:03:53;;;;;;;5.30;2.90;;;;;;;29.43;38.71;98882.31;6899200;28;20327;-81
2022/06/06 09:08:00;;;;;;;6.77;3.10;;;;;;;28.84;39.93;98887.72;6948484;28;20191;-80
2022/06/06 09:12:05;;;;;;;4.93;3.20;;;;;;;27.70;40.36;98901.53;6920965;28;20234;-79
2022/06/06 09:16:18;;;;;;;4.63;2.77;;;;;;;27.91;38.71;98875.00;6949289;28;20225;-80
2022/06/06 09:20:17;;;;;;;6.63;2.73;;;;;;;29.00;38.87;98873.09;6860045;28;20243;-79
2022/06/06 09:24:08;;;;;;;3.30;3.00;;;;;;;28.51;39.02;98861.47;6938222;28;20633;-80
2022/06/06 09:28:01;;;;;;;5.90;2.80;;;;;;;28.12;40.45;98859.44;6947935;28;20207;-80
2022/06/06 09:31:53;;;;;;;2.70;2.50;;;;;;;28.09;40.25;98860.09;6933340;28;20276;-79
2022/06/06 09:35:38;;;;;;;3.57;2.60;;;;;;;27.83;38.96;98861.06;6920201;28;20296;-80
2022/06/06 09:39:09;;;;;;;2.60;2.40;;;;;;;28.19;37.13;98859.81;6919711;28;20208;-79
2022/06/06 09:42:38;;;;;;;2.97;2.77;;;;;;;27.95;35.88;98858.53;6920290;28;20188;-79
2022/06/06 09:46:45;;;;;;;2.60;2.37;;;;;;;27.90;37.07;98850.34;6919860;28;20217;-78
2022/06/06 09:50:34;;;;;;;2.57;2.17;;;;;;;28.08;36.33;98858.44;6920631;28;20830;-79
2022/06/06 09:59:02;;;;;;;2.10;2.00;;;;;;;28.65;34.41;98837.19;6907721;28;20204;-78
2022/06/06 10:03:00;;;;;;;1.93;1.70;;;;;;;28.91;33.03;98850.00;6920982;28;20804;-79
2022/06/06 10:06:54;;;;;;;4.23;2.00;;;;;;;29.14;32.55;98848.78;6921596;28;20282;-79
2022/06/06 10:10:52;;;;;;;2.53;2.03;;;;;;;29.18;32.83;98843.44;6920192;28;20225;-79
2022/06/06 10:14:37;;;;;;;3.37;1.90;;;;;;;28.63;32.85;98831.16;6920977;28;20560;-79
2022/06/06 10:18:33;;;;;;;2.60;1.90;;;;;;;28.25;32.84;98855.75;6927638;28;20569;-78
2022/06/06 10:22:13;;;;;;;2.17;1.90;;;;;;;28.07;33.11;98851.25;6926703;28;20226;-80
2022/06/06 10:25:57;;;;;;;2.90;1.90;;;;;;;28.32;32.37;98831.16;6947543;28;20238;-79
2022/06/06 10:33:42;;;;;;;4.30;2.20;;;;;;;28.26;34.29;98843.53;6946271;28;20200;-79
2022/06/06 10:37:29;;;;;;;3.23;1.93;;;;;;;28.74;33.09;98838.88;6947341;28;20218;-80
2022/06/06 10:40:58;;;;;;;2.17;1.90;;;;;;;28.65;32.48;98826.09;6943652;28;20227;-80
2022/06/06 10:44:42;;;;;;;2.83;1.90;;;;;;;29.60;30.91;98826.78;6953206;28;20183;-80
2022/06/06 10:48:14;;;;;;;2.00;1.87;;;;;;;29.28;33.53;98834.75;6951477;28;20219;-80
2022/06/06 10:52:27;;;;;;;2.60;2.17;;;;;;;28.02;33.36;98820.91;6952964;28;20282;-80
2022/06/06 10:56:05;;;;;;;2.23;1.90;;;;;;;28.88;32.83;98828.47;6952435;28;20227;-79
2022/06/06 11:00:03;;;;;;;2.50;2.30;;;;;;;29.22;31.64;98811.06;6952095;28;20354;-79
2022/06/06 11:03:57;;;;;;;3.67;2.10;;;;;;;29.45;32.55;98802.25;6951848;28;20252;-79
2022/06/06 11:07:43;;;;;;;2.97;2.20;;;;;;;29.57;32.39;98796.88;6951799;28;20242;-80
2022/06/06 11:11:38;;;;;;;1.80;1.70;;;;;;;29.85;33.12;98792.56;6952261;28;20229;-79
2022/06/06 11:15:03;;;;;;;3.43;1.87;;;;;;;30.53;31.37;98785.97;6943457;28;20219;-79
2022/06/06 11:18:47;;;;;;;2.80;2.00;;;;;;;31.05;29.25;98760.28;6950279;28;20305;-79
2022/06/06 11:22:27;;;;;;;2.37;1.97;;;;;;;30.37;30.28;98785.72;6951065;28;20265;-79
2022/06/06 11:26:04;;;;;;;3.80;1.67;;;;;;;31.22;28.90;98779.69;6924617;28;20191;-79
2022/06/06 11:30:02;;;;;;;2.30;1.73;;;;;;;31.37;28.79;98772.69;6924065;28;20230;-79
2022/06/06 11:34:06;;;;;;;2.13;1.90;;;;;;;30.46;29.03;98769.81;6922850;28;20202;-79
2022/06/06 11:38:00;;;;;;;1.87;1.77;;;;;;;29.57;29.52;98766.31;6913595;28;20228;-79
2022/06/06 11:41:26;;;;;;;2.50;1.97;;;;;;;29.16;31.48;98785.41;6927068;28;20233;-81
2022/06/06 11:45:10;;;;;;;2.03;1.83;;;;;;;29.73;29.97;98766.59;6937058;28;20265;-79
2022/06/06 11:49:10;;;;;;;3.87;2.20;;;;;;;29.58;30.58;98759.59;6949281;28;20187;-79
2022/06/06 11:53:13;;;;;;;2.27;2.07;;;;;;;29.84;30.56;98773.44;6951213;28;20220;-79
2022/06/06 11:57:12;;;;;;;2.00;1.80;;;;;;;29.00;31.47;98778.69;6951164;28;20707;-79
2022/06/06 12:00:44;;;;;;;2.47;2.00;;;;;;;28.90;31.68;98770.66;6934796;28;20258;-79
2022/06/06 12:04:25;;;;;;;2.70;1.90;;;;;;;28.99;31.14;98771.53;6946942;28;20210;-79
2022/06/06 12:08:26;;;;;;;2.27;2.00;;;;;;;28.92;31.58;98762.84;6927449;28;20198;-79
2022/06/06 12:12:13;;;;;;;4.33;1.80;;;;;;;29.35;31.23;98758.13;6925827;28;20220;-79
2022/06/06 12:16:07;;;;;;;2.60;2.20;;;;;;;29.21;32.10;98763.03;6928503;28;20203;-79
2022/06/06 12:19:45;;;;;;;3.00;2.03;;;;;;;29.27;31.92;98758.97;6942537;28;20227;-78
2022/06/06 12:23:12;;;;;;;2.53;1.90;;;;;;;28.73;33.00;98730.97;6947588;28;20762;-78
2022/06/06 12:26:51;;;;;;;2.30;2.10;;;;;;;29.09;31.77;98748.16;6949565;28;20286;-79
2022/06/06 12:30:47;;;;;;;3.97;2.30;;;;;;;28.79;31.76;98755.44;6943152;28;20297;-78
2022/06/06 12:34:14;;;;;;;2.47;2.00;;;;;;;28.46;32.43;98759.81;6889847;28;20203;-79
2022/06/06 12:37:43;;;;;;;3.67;2.33;;;;;;;27.56;34.02;98762.25;6943548;28;20226;-78
2022/06/06 12:41:16;;;;;;;3.07;2.03;;;;;;;28.05;33.07;98742.66;6951873;28;20676;-80
2022/06/06 12:45:02;;;;;;;4.03;2.10;;;;;;;28.50;32.94;98752.47;6945691;28;20274;-80
2022/06/06 12:48:52;;;;;;;3.10;2.17;;;;;;;29.18;32.16;98737.88;6936619;28;20223;-78
2022/06/06 12:52:42;;;;;;;2.43;2.03;;;;;;;29.56;30.87;98742.44;6952913;28;20746;-78
2022/06/06 12:56:23;;;;;;;4.13;2.10;;;;;;;30.06;29.10;98723.97;6935934;28;20369;-78
2022/06/06 12:59:48;;;;;;;5.23;2.00;;;;;;;29.58;31.26;98719.88;6947786;28;20315;-79
2022/06/06 13:03:15;;;;;;;2.97;2.17;;;;;;;29.04;30.16;98724.16;6950167;28;20234;-79
2022/06/06 13:06:43;;;;;;;2.90;2.00;;;;;;;29.33;30.99;98727.09;6932628;28;20214;-78
2022/06/06 13:10:15;;;;;;;3.50;1.90;;;;;;;29.81;29.88;98713.75;6921444;28;20724;-79
2022/06/06 13:14:12;;;;;;;1.93;1.83;;;;;;;29.51;28.34;98713.97;6921411;28;20189;-79
2022/06/06 13:17:41;;;;;;;1.77;1.47;;;;;;;29.16;29.46;98710.44;6920662;28;20835;-79
2022/06/06 13:21:07;;;;;;;2.07;1.90;;;;;;;30.19;28.57;98714.59;6924094;28;20219;-79
2022/06/06 13:24:42;;;;;;;3.90;1.77;;;;;;;30.27;29.45;98702.63;6922361;28;20193;-78
2022/06/06 13:28:16;;;;;;;1.97;1.83;;;;;;;30.04;29.43;98708.75;6920478;28;20200;-78
2022/06/06 13:31:51;;;;;;;1.97;1.80;;;;;;;29.67;29.61;98676.22;6921243;28;20270;-78
2022/06/06 13:35:26;;;;;;;2.27;2.03;;;;;;;29.85;29.39;98692.47;6919578;28;20200;-79
2022/06/06 13:38:58;;;;;;;2.10;1.90;;;;;;;29.89;29.38;98709.34;6921414;28;20215;-78
2022/06/06 13:42:35;;;;;;;2.47;1.80;;;;;;;29.30;29.87;98693.59;6948033;28;20230;-79
2022/06/06 13:46:11;;;;;;;2.93;2.10;;;;;;;29.18;31.03;98716.47;6951595;28;20622;-79
2022/06/06 13:49:55;;;;;;;2.67;1.90;;;;;;;28.79;31.54;98707.47;6946906;28;20227;-78
2022/06/06 13:53:43;;;;;;;2.10;1.83;;;;;;;28.61;32.61;98692.72;6945013;28;20218;-79
2022/06/06 13:57:24;;;;;;;2.20;1.77;;;;;;;27.94;33.37;98723.81;6921010;28;20246;-79
2022/06/06 14:00:53;;;;;;;2.70;1.93;;;;;;;28.41;33.21;98715.56;6920311;28;20259;-78
2022/06/06 14:04:37;;;;;;;3.47;1.97;;;;;;;28.35;31.34;98749.28;6921444;28;20278;-79
2022/06/06 14:08:09;;;;;;;2.30;2.10;;;;;;;27.58;31.19;98739.75;6914286;28;20208;-80
2022/06/06 14:11:51;;;;;;;2.33;1.80;;;;;;;27.69;30.14;98730.03;6921024;28;20350;-80
2022/06/06 14:15:14;;;;;;;2.80;2.00;;;;;;;27.65;31.80;98726.28;6921446;28;20199;-79
2022/06/06 14:18:37;;;;;;;2.27;1.60;;;;;;;28.24;30.90;98739.63;6920209;28;20242;-79
2022/06/06 14:22:03;;;;;;;3.13;2.10;;;;;;;27.86;31.10;98736.53;6920899;28;20369;-80
2022/06/06 14:25:44;;;;;;;2.67;1.80;;;;;;;27.59;31.40;98725.59;6921223;28;20207;-79
2022/06/06 14:29:09;;;;;;;2.10;1.90;;;;;;;27.53;32.50;98704.69;6920233;28;20297;-79
2022/06/06 14:32:32;;;;;;;2.10;1.90;;;;;;;27.91;31.36;98725.31;6920997;28;20306;-81
2022/06/06 14:35:54;;;;;;;3.00;1.70;;;;;;;28.09;31.35;98731.72;6919355;28;20239;-80
2022/06/06 14:39:23;;;;;;;1.73;1.57;;;;;;;27.27;31.73;98725.88;6920836;28;20294;-80
2022/06/06 14:42:47;;;;;;;3.73;2.07;;;;;;;27.13;32.94;98727.03;6921989;28;20259;-80
2022/06/06 14:46:10;;;;;;;2.50;2.10;;;;;;;28.13;32.80;98719.69;6923994;28;20749;-80
2022/06/06 14:49:34;;;;;;;2.33;2.13;;;;;;;27.98;32.10;98725.66;6920364;28;20227;-80
2022/06/06 14:52:58;;;;;;;2.00;1.73;;;;;;;27.83;32.96;98703.91;6920624;28;20227;-80
2022/06/06 14:56:33;;;;;;;2.60;1.97;;;;;;;27.67;32.94;98710.16;6921060;28;20267;-80
2022/06/06 14:59:55;;;;;;;2.70;2.30;;;;;;;27.74;33.40;98716.88;6920737;28;20489;-80
2022/06/06 15:03:17;;;;;;;2.07;1.87;;;;;;;27.81;33.47;98736.66;6920641;28;20275;-80
2022/06/06 15:06:47;;;;;;;2.50;2.00;;;;;;;28.13;33.35;98732.75;6945467;28;20207;-80
2022/06/06 15:10:19;;;;;;;3.23;2.10;;;;;;;28.52;32.46;98725.22;6947656;28;20233;-80
2022/06/06 15:13:46;;;;;;;4.53;1.90;;;;;;;28.78;33.00;98708.59;6947481;28;20289;-79
2022/06/06 15:17:12;;;;;;;4.63;2.20;;;;;;;29.45;30.97;98718.06;6947724;28;20212;-79
2022/06/06 15:20:36;;;;;;;2.73;2.07;;;;;;;29.12;31.74;98725.28;6947029;28;20237;-79
2022/06/06 15:24:00;;;;;;;2.00;1.90;;;;;;;28.95;32.72;98726.09;6949335;28;20691;-79
2022/06/06 15:27:45;;;;;;;2.07;1.87;;;;;;;28.90;30.98;98717.91;6952016;28;20211;-79
2022/06/06 15:31:20;;;;;;;2.47;2.27;;;;;;;28.41;32.91;98725.81;6952340;28;20242;-79
2022/06/06 15:34:50;;;;;;;3.40;2.57;;;;;;;28.05;33.60;98714.94;6950757;28;20195;-79
2022/06/06 15:38:25;;;;;;;3.87;2.00;;;;;;;27.75;33.73;98709.38;6951488;28;20209;-79
2022/06/06 15:41:52;;;;;;;3.33;2.20;;;;;;;27.77;33.62;98705.19;6950885;28;20578;-79
2022/06/06 15:45:36;;;;;;;2.37;2.17;;;;;;;27.56;33.67;98706.00;6924771;28;20196;-79
2022/06/06 15:49:09;;;;;;;3.13;2.83;;;;;;;27.28;34.29;98712.84;6916218;28;20208;-79
2022/06/06 15:52:41;;;;;;;2.90;2.60;;;;;;;28.16;33.46;98704.34;6933944;28;20201;-79
2022/06/06 15:56:06;;;;;;;5.10;3.17;;;;;;;28.21;33.15;98696.72;6952649;28;20202;-79
2022/06/06 15:59:51;;;;;;;4.23;2.90;;;;;;;27.05;34.53;98705.63;6951607;28;20227;-79
2022/06/06 16:03:32;;;;;;;3.50;2.83;;;;;;;27.81;34.77;98711.72;6947544;28;20215;-79
2022/06/06 16:07:01;;;;;;;3.70;3.13;;;;;;;27.94;34.08;98718.28;6952065;28;20229;-79
2022/06/06 16:10:25;;;;;;;5.93;2.27;;;;;;;27.58;35.68;98714.81;6950266;28;20628;-79
2022/06/06 16:13:57;;;;;;;3.40;2.70;;;;;;;27.77;35.41;98713.50;6950924;28;20214;-79
2022/06/06 16:17:23;;;;;;;5.03;2.13;;;;;;;27.44;35.09;98709.38;6951760;28;20694;-79
2022/06/06 16:20:47;;;;;;;2.93;2.20;;;;;;;27.27;35.74;98712.03;6951251;28;20231;-78
2022/06/06 16:24:15;;;;;;;2.80;2.50;;;;;;;27.46;35.81;98707.09;6951399;28;20686;-82
2022/06/06 16:27:41;;;;;;;3.13;2.30;;;;;;;26.94;36.48;98687.63;6951168;28;20735;-80
2022/06/06 16:31:05;;;;;;;6.83;6.23;;;;;;;27.30;36.15;98711.38;6950292;28;20814;-79
2022/06/06 16:34:30;;;;;;;258.97;233.23;;;;;;;26.61;37.13;98709.16;6949616;28;20201;-80
2022/06/06 16:38:02;;;;;;;327.27;293.00;;;;;;;27.13;36.33;98705.69;6950263;28;20240;-79
2022/06/06 16:49:04;;;;;;;2.93;2.07;;;;;;;27.26;36.08;98715.09;6949878;28;20217;-78
2022/06/06 16:52:31;;;;;;;5.23;2.33;;;;;;;27.30;35.44;98702.28;6951335;28;20199;-79
2022/06/06 16:55:58;;;;;;;3.80;2.10;;;;;;;27.33;35.88;98704.41;6951008;28;20191;-79
2022/06/06 16:59:41;;;;;;;3.63;2.10;;;;;;;26.98;37.16;98705.25;6950169;28;20232;-79
2022/06/06 17:03:19;;;;;;;2.97;2.50;;;;;;;27.09;36.68;98701.94;6951186;28;20214;-79
2022/06/06 17:10:38;;;;;;;2.40;2.00;;;;;;;26.76;36.78;98717.13;6961745;28;20223;-79
2022/06/06 17:14:03;;;;;;;3.07;2.00;;;;;;;25.95;37.50;98713.63;6954204;28;20214;-78
2022/06/06 17:17:26;;;;;;;4.50;2.07;;;;;;;26.09;37.40;98706.97;6950011;28;20222;-79
2022/06/06 17:20:48;;;;;;;2.17;1.83;;;;;;;26.38;37.37;98725.97;6949255;28;20230;-78
2022/06/06 17:24:31;;;;;;;2.33;2.10;;;;;;;25.67;38.17;98714.66;6950346;28;20217;-79